createdAt,value
2019-05-26T00:00:34.185Z,4.60
2019-05-26T00:03:02.775Z,5.20
2019-05-26T00:05:31.334Z,3.90
2019-05-26T00:07:59.874Z,4.67
2019-05-26T00:10:28.702Z,4.50
2019-05-26T00:12:57.242Z,4.10
2019-05-26T00:15:25.746Z,4.43
2019-05-26T00:17:54.275Z,4.13
2019-05-26T00:20:22.780Z,4.40
2019-05-26T00:22:51.323Z,4.17
2019-05-26T00:25:20.028Z,4.90
2019-05-26T00:27:48.564Z,4.83
2019-05-26T00:30:17.469Z,4.33
2019-05-26T00:32:46.098Z,4.50
2019-05-26T00:35:14.739Z,4.50
2019-05-26T00:37:49.851Z,4.23
2019-05-26T00:40:15.451Z,4.50
2019-05-26T00:42:44.065Z,4.43
2019-05-26T00:45:13.142Z,5.00
2019-05-26T00:47:41.766Z,4.80
2019-05-26T00:50:10.862Z,4.30
2019-05-26T00:52:39.650Z,5.43
2019-05-26T00:55:09.265Z,4.50
2019-05-26T00:57:38.011Z,4.23
2019-05-26T01:00:11.180Z,4.60
2019-05-26T01:02:39.754Z,4.97
2019-05-26T01:05:09.634Z,5.03
2019-05-26T01:07:38.726Z,5.40
2019-05-26T01:10:07.920Z,5.63
2019-05-26T01:12:36.495Z,5.23
2019-05-26T01:15:07.379Z,5.30
2019-05-26T01:17:36.266Z,5.03
2019-05-26T01:20:05.838Z,5.57
2019-05-26T01:22:34.333Z,6.00
2019-05-26T01:25:03.425Z,5.43
2019-05-26T01:27:31.983Z,5.60
2019-05-26T01:30:00.585Z,5.83
2019-05-26T01:32:29.087Z,5.90
2019-05-26T01:34:57.640Z,5.73
2019-05-26T01:37:26.333Z,6.20
2019-05-26T01:39:55.062Z,6.47
2019-05-26T01:42:23.764Z,6.00
2019-05-26T01:44:52.306Z,5.50
2019-05-26T01:47:20.869Z,6.20
2019-05-26T01:49:49.491Z,6.47
2019-05-26T01:52:18.075Z,6.37
2019-05-26T01:54:46.567Z,5.47
2019-05-26T01:57:15.194Z,5.60
2019-05-26T01:59:43.738Z,5.17
2019-05-26T02:02:12.305Z,5.60
2019-05-26T02:04:40.854Z,5.63
2019-05-26T02:07:09.415Z,5.43
2019-05-26T02:09:37.945Z,4.50
2019-05-26T02:12:06.558Z,6.03
2019-05-26T02:14:35.119Z,5.77
2019-05-26T02:17:03.662Z,5.33
2019-05-26T02:19:32.277Z,5.33
2019-05-26T02:22:00.771Z,5.30
2019-05-26T02:24:29.338Z,4.83
2019-05-26T02:26:57.798Z,5.67
2019-05-26T02:29:26.297Z,6.20
2019-05-26T02:31:54.828Z,4.90
2019-05-26T02:34:23.388Z,5.73
2019-05-26T02:36:51.930Z,6.00
2019-05-26T02:39:20.492Z,5.30
2019-05-26T02:41:48.981Z,5.80
2019-05-26T02:44:17.614Z,5.27
2019-05-26T02:46:46.147Z,5.27
2019-05-26T02:49:14.718Z,5.77
2019-05-26T02:51:43.267Z,5.63
2019-05-26T02:54:11.927Z,5.50
2019-05-26T02:56:40.587Z,6.50
2019-05-26T02:59:09.147Z,6.40
2019-05-26T03:01:37.951Z,6.20
2019-05-26T03:04:06.654Z,6.37
2019-05-26T03:06:36.242Z,5.77
2019-05-26T03:09:22.101Z,6.10
2019-05-26T03:11:38.949Z,6.10
2019-05-26T03:14:08.161Z,5.67
2019-05-26T03:16:38.310Z,6.13
2019-05-26T03:19:06.949Z,6.00
2019-05-26T03:21:35.553Z,4.93
2019-05-26T03:24:04.804Z,5.67
2019-05-26T03:26:33.426Z,5.80
2019-05-26T03:29:01.977Z,5.53
2019-05-26T03:31:30.622Z,6.23
2019-05-26T03:33:59.148Z,5.60
2019-05-26T03:36:27.712Z,5.27
2019-05-26T03:38:57.058Z,5.70
2019-05-26T03:41:25.634Z,5.57
2019-05-26T03:43:54.161Z,5.87
2019-05-26T03:46:22.803Z,6.20
2019-05-26T03:48:51.427Z,5.37
2019-05-26T03:51:20.135Z,7.23
2019-05-26T03:53:48.680Z,6.10
2019-05-26T03:56:17.305Z,6.57
2019-05-26T03:58:45.919Z,5.47
2019-05-26T04:01:14.552Z,5.80
2019-05-26T04:03:43.395Z,5.47
2019-05-26T04:06:12.030Z,6.40
2019-05-26T04:08:40.568Z,5.20
2019-05-26T04:11:09.203Z,6.10
2019-05-26T04:13:37.746Z,5.60
2019-05-26T04:16:06.391Z,6.13
2019-05-26T04:18:34.930Z,6.07
2019-05-26T04:21:03.500Z,5.63
2019-05-26T04:23:32.047Z,6.00
2019-05-26T04:26:00.657Z,5.67
2019-05-26T04:28:29.228Z,5.80
2019-05-26T04:30:57.765Z,6.60
2019-05-26T04:33:26.332Z,5.67
2019-05-26T04:35:54.881Z,6.10
2019-05-26T04:38:23.439Z,6.50
2019-05-26T04:40:51.970Z,5.63
2019-05-26T04:43:20.542Z,5.43
2019-05-26T04:45:49.091Z,6.23
2019-05-26T04:48:17.661Z,5.67
2019-05-26T04:50:46.198Z,5.27
2019-05-26T04:53:14.909Z,5.73
2019-05-26T04:55:43.434Z,4.97
2019-05-26T04:58:11.995Z,4.80
2019-05-26T05:00:40.603Z,5.83
2019-05-26T05:03:09.168Z,5.10
2019-05-26T05:05:37.710Z,5.73
2019-05-26T05:08:06.375Z,5.50
2019-05-26T05:10:42.403Z,5.10
2019-05-26T05:13:05.369Z,5.03
2019-05-26T05:15:33.941Z,5.77
2019-05-26T05:18:02.508Z,4.60
2019-05-26T05:20:31.041Z,5.83
2019-05-26T05:22:59.682Z,5.80
2019-05-26T05:25:28.590Z,5.13
2019-05-26T05:27:57.240Z,6.40
2019-05-26T05:30:25.921Z,6.70
2019-05-26T05:32:54.487Z,6.20
2019-05-26T05:35:23.161Z,5.50
2019-05-26T05:37:51.701Z,5.57
2019-05-26T05:40:20.411Z,5.60
2019-05-26T05:42:48.943Z,7.70
2019-05-26T05:45:20.024Z,6.53
2019-05-26T05:47:48.653Z,6.57
2019-05-26T05:50:19.045Z,6.50
2019-05-26T05:52:47.617Z,7.13
2019-05-26T05:55:16.371Z,6.50
2019-05-26T05:57:44.960Z,6.73
2019-05-26T06:00:13.968Z,6.13
2019-05-26T06:02:42.508Z,6.90
2019-05-26T06:05:11.906Z,6.90
2019-05-26T06:07:40.455Z,6.60
2019-05-26T06:10:09.876Z,6.87
2019-05-26T06:12:38.703Z,7.00
2019-05-26T06:15:12.003Z,6.63
2019-05-26T06:17:41.019Z,7.30
2019-05-26T06:20:10.414Z,6.80
2019-05-26T06:22:38.890Z,6.57
2019-05-26T06:25:07.845Z,7.00
2019-05-26T06:27:36.370Z,6.77
2019-05-26T06:30:10.006Z,6.70
2019-05-26T06:32:38.563Z,6.87
2019-05-26T06:35:07.465Z,7.57
2019-05-26T06:37:36.015Z,7.20
2019-05-26T06:40:06.528Z,6.43
2019-05-26T06:42:35.135Z,6.23
2019-05-26T06:45:07.448Z,6.00
2019-05-26T06:47:35.995Z,6.87
2019-05-26T06:50:06.643Z,7.00
2019-05-26T06:52:35.213Z,6.17
2019-05-26T06:55:04.794Z,6.70
2019-05-26T06:57:33.282Z,6.50
2019-05-26T07:00:01.749Z,6.83
2019-05-26T07:02:30.268Z,6.60
2019-05-26T07:04:59.095Z,5.97
2019-05-26T07:07:27.654Z,6.70
2019-05-26T07:09:56.194Z,6.10
2019-05-26T07:12:24.770Z,6.00
2019-05-26T07:14:53.303Z,7.23
2019-05-26T07:17:21.854Z,6.00
2019-05-26T07:19:50.385Z,6.20
2019-05-26T07:22:18.890Z,6.20
2019-05-26T07:24:47.423Z,6.37
2019-05-26T07:27:16.006Z,6.93
2019-05-26T07:29:44.537Z,6.90
2019-05-26T07:32:13.108Z,6.70
2019-05-26T07:34:41.657Z,7.23
2019-05-26T07:37:10.230Z,7.30
2019-05-26T07:39:39.037Z,7.00
2019-05-26T07:42:10.624Z,6.63
2019-05-26T07:44:37.914Z,7.00
2019-05-26T07:47:06.478Z,8.03
2019-05-26T07:49:35.024Z,8.83
2019-05-26T07:52:03.684Z,8.43
2019-05-26T07:54:32.226Z,21.13
2019-05-26T07:57:00.802Z,8.03
2019-05-26T07:59:29.340Z,9.20
2019-05-26T08:01:57.903Z,7.83
2019-05-26T08:04:26.471Z,7.13
2019-05-26T08:06:55.089Z,8.33
2019-05-26T08:09:23.655Z,8.90
2019-05-26T08:11:52.202Z,8.80
2019-05-26T08:14:20.766Z,7.90
2019-05-26T08:16:49.317Z,7.27
2019-05-26T08:19:18.047Z,7.93
2019-05-26T08:21:46.592Z,7.47
2019-05-26T08:24:15.170Z,8.03
2019-05-26T08:26:43.713Z,8.53
2019-05-26T08:29:12.353Z,8.73
2019-05-26T08:31:40.897Z,8.47
2019-05-26T08:34:10.747Z,8.80
2019-05-26T08:36:39.354Z,9.80
2019-05-26T08:39:09.070Z,9.27
2019-05-26T08:41:37.619Z,8.10
2019-05-26T08:44:06.443Z,7.93
2019-05-26T08:46:35.059Z,8.60
2019-05-26T08:49:03.691Z,8.50
2019-05-26T08:51:32.310Z,8.60
2019-05-26T08:54:00.955Z,9.33
2019-05-26T08:56:29.557Z,8.40
2019-05-26T08:58:58.214Z,7.00
2019-05-26T09:01:26.706Z,8.77
2019-05-26T09:03:55.351Z,7.43
2019-05-26T09:06:23.963Z,6.70
2019-05-26T09:08:52.669Z,7.77
2019-05-26T09:11:21.290Z,7.57
2019-05-26T09:13:49.924Z,6.50
2019-05-26T09:16:18.457Z,5.70
2019-05-26T09:18:47.026Z,6.17
2019-05-26T09:21:15.563Z,6.30
2019-05-26T09:23:44.135Z,4.90
2019-05-26T09:26:12.683Z,5.70
2019-05-26T09:28:41.322Z,7.40
2019-05-26T09:31:10.191Z,6.13
2019-05-26T09:33:38.836Z,5.60
2019-05-26T09:36:07.442Z,4.63
2019-05-26T09:38:36.243Z,4.33
2019-05-26T09:41:04.873Z,3.93
2019-05-26T09:43:34.037Z,4.67
2019-05-26T09:46:02.721Z,5.00
2019-05-26T09:48:31.337Z,4.30
2019-05-26T09:50:59.902Z,4.43
2019-05-26T09:53:28.428Z,3.77
2019-05-26T09:55:57.330Z,3.90
2019-05-26T09:58:25.871Z,4.00
2019-05-26T10:00:54.441Z,3.80
2019-05-26T10:03:22.985Z,3.20
2019-05-26T10:05:51.570Z,3.53
2019-05-26T10:08:20.105Z,3.90
2019-05-26T10:10:48.661Z,3.87
2019-05-26T10:13:30.824Z,4.20
2019-05-26T10:15:47.491Z,4.23
2019-05-26T10:18:16.039Z,3.80
2019-05-26T10:20:44.865Z,4.33
2019-05-26T10:23:13.393Z,3.93
2019-05-26T10:25:41.898Z,4.00
2019-05-26T10:28:10.443Z,4.10
2019-05-26T10:30:39.072Z,3.60
2019-05-26T10:33:07.610Z,4.03
2019-05-26T10:35:36.182Z,4.13
2019-05-26T10:38:04.801Z,4.10
2019-05-26T10:40:33.353Z,4.30
2019-05-26T10:43:01.967Z,4.40
2019-05-26T10:45:34.104Z,4.30
2019-05-26T10:48:00.709Z,3.67
2019-05-26T10:50:29.273Z,3.90
2019-05-26T10:52:57.817Z,3.80
2019-05-26T10:55:26.379Z,2.90
2019-05-26T10:57:55.063Z,3.67
2019-05-26T11:00:24.172Z,4.17
2019-05-26T11:02:52.715Z,3.50
2019-05-26T11:05:21.293Z,3.60
2019-05-26T11:07:49.906Z,3.80
2019-05-26T11:10:18.714Z,3.30
2019-05-26T11:12:47.332Z,3.90
2019-05-26T11:15:16.242Z,3.20
2019-05-26T11:17:44.767Z,3.20
2019-05-26T11:20:13.747Z,3.37
2019-05-26T11:22:42.312Z,3.17
2019-05-26T11:25:11.386Z,3.00
2019-05-26T11:27:39.954Z,2.90
2019-05-26T11:30:13.563Z,2.90
2019-05-26T11:32:42.133Z,2.33
2019-05-26T11:35:11.398Z,2.50
2019-05-26T11:37:39.884Z,2.20
2019-05-26T11:40:08.982Z,2.37
2019-05-26T11:42:37.531Z,2.27
2019-05-26T11:45:08.793Z,2.70
2019-05-26T11:47:37.438Z,2.93
2019-05-26T11:50:10.468Z,2.50
2019-05-26T11:52:39.036Z,2.13
2019-05-26T11:55:08.308Z,2.30
2019-05-26T11:57:37.532Z,2.07
2019-05-26T12:00:07.999Z,2.60
2019-05-26T12:02:36.922Z,2.20
2019-05-26T12:05:07.201Z,2.57
2019-05-26T12:07:35.898Z,2.20
2019-05-26T12:10:13.382Z,2.50
2019-05-26T12:12:39.461Z,3.00
2019-05-26T12:15:10.708Z,2.50
2019-05-26T12:17:39.324Z,2.00
2019-05-26T12:20:08.530Z,2.40
2019-05-26T12:22:37.135Z,2.27
2019-05-26T12:25:09.400Z,2.70
2019-05-26T12:27:38.006Z,2.83
2019-05-26T12:30:09.523Z,2.40
2019-05-26T12:32:38.139Z,3.20
2019-05-26T12:35:08.460Z,2.60
2019-05-26T12:37:37.070Z,3.03
2019-05-26T12:40:08.884Z,3.10
2019-05-26T12:42:37.542Z,2.90
2019-05-26T12:45:07.856Z,2.13
2019-05-26T12:47:36.536Z,2.80
2019-05-26T12:50:09.925Z,3.30
2019-05-26T12:52:38.610Z,3.47
2019-05-26T12:55:09.496Z,3.50
2019-05-26T12:57:38.544Z,3.00
2019-05-26T13:00:08.246Z,3.57
2019-05-26T13:02:36.946Z,4.53
2019-05-26T13:05:07.357Z,4.90
2019-05-26T13:07:36.077Z,3.27
2019-05-26T13:10:06.882Z,3.60
2019-05-26T13:12:35.356Z,3.40
2019-05-26T13:15:06.501Z,3.60
2019-05-26T13:17:35.267Z,3.50
2019-05-26T13:20:07.141Z,3.00
2019-05-26T13:22:35.797Z,3.37
2019-05-26T13:25:06.755Z,3.30
2019-05-26T13:27:35.357Z,2.93
2019-05-26T13:30:06.998Z,3.17
2019-05-26T13:32:35.538Z,2.87
2019-05-26T13:35:07.941Z,2.80
2019-05-26T13:37:36.482Z,4.03
2019-05-26T13:40:07.534Z,3.00
2019-05-26T13:42:36.461Z,2.43
2019-05-26T13:45:21.232Z,2.70
2019-05-26T13:47:39.150Z,2.67
2019-05-26T13:50:08.873Z,2.10
2019-05-26T13:52:37.542Z,2.30
2019-05-26T13:55:11.762Z,2.30
2019-05-26T13:57:40.331Z,2.43
2019-05-26T14:00:10.476Z,2.47
2019-05-26T14:02:39.131Z,2.53
2019-05-26T14:05:08.725Z,2.50
2019-05-26T14:07:37.350Z,2.40
2019-05-26T14:10:07.134Z,2.20
2019-05-26T14:12:36.042Z,2.97
2019-05-26T14:15:07.096Z,2.90
2019-05-26T14:17:37.203Z,2.50
2019-05-26T14:20:07.287Z,2.47
2019-05-26T14:22:35.889Z,2.60
2019-05-26T14:25:06.244Z,2.23
2019-05-26T14:27:34.815Z,1.90
2019-05-26T14:30:07.113Z,2.07
2019-05-26T14:32:35.685Z,2.07
2019-05-26T14:35:06.763Z,2.20
2019-05-26T14:37:35.405Z,2.03
2019-05-26T14:40:08.885Z,2.10
2019-05-26T14:42:37.553Z,1.83
2019-05-26T14:45:07.047Z,2.20
2019-05-26T14:47:35.677Z,2.23
2019-05-26T14:50:06.886Z,2.10
2019-05-26T14:52:35.461Z,2.00
2019-05-26T14:55:04.948Z,1.70
2019-05-26T14:57:33.516Z,1.90
2019-05-26T15:00:02.061Z,1.93
2019-05-26T15:02:30.654Z,1.70
2019-05-26T15:04:59.240Z,1.87
2019-05-26T15:07:27.779Z,1.73
2019-05-26T15:09:56.393Z,1.60
2019-05-26T15:12:24.889Z,1.53
2019-05-26T15:14:53.455Z,1.50
2019-05-26T15:17:21.924Z,1.80
2019-05-26T15:19:50.491Z,1.70
2019-05-26T15:22:19.025Z,2.03
2019-05-26T15:24:47.523Z,1.70
2019-05-26T15:27:16.060Z,1.50
2019-05-26T15:29:44.626Z,1.60
2019-05-26T15:32:13.142Z,1.70
2019-05-26T15:34:41.785Z,1.50
2019-05-26T15:37:10.479Z,2.70
2019-05-26T15:39:39.042Z,2.77
2019-05-26T15:42:08.431Z,1.70
2019-05-26T15:44:37.115Z,1.73
2019-05-26T15:47:06.027Z,1.90
2019-05-26T15:49:34.594Z,1.83
2019-05-26T15:52:03.284Z,1.50
2019-05-26T15:54:31.930Z,1.90
2019-05-26T15:57:00.470Z,2.00
2019-05-26T15:59:29.031Z,1.77
2019-05-26T16:01:57.489Z,1.70
2019-05-26T16:04:25.981Z,1.80
2019-05-26T16:06:54.519Z,1.47
2019-05-26T16:09:23.459Z,1.47
2019-05-26T16:11:51.999Z,1.80
2019-05-26T16:14:25.061Z,2.43
2019-05-26T16:16:53.637Z,3.10
2019-05-26T16:19:22.176Z,3.57
2019-05-26T16:21:50.735Z,2.10
2019-05-26T16:24:19.315Z,2.90
2019-05-26T16:26:47.882Z,2.87
2019-05-26T16:29:16.430Z,2.13
2019-05-26T16:31:45.005Z,1.90
2019-05-26T16:34:13.597Z,1.77
2019-05-26T16:36:42.377Z,2.03
2019-05-26T16:39:10.916Z,1.40
2019-05-26T16:41:39.480Z,2.90
2019-05-26T16:44:08.009Z,1.73
2019-05-26T16:46:36.495Z,1.80
2019-05-26T16:49:05.111Z,1.70
2019-05-26T16:51:33.673Z,4.60
2019-05-26T16:54:02.146Z,3.33
2019-05-26T16:56:30.745Z,1.60
2019-05-26T16:58:59.278Z,1.60
2019-05-26T17:01:27.848Z,1.80
2019-05-26T17:03:56.388Z,1.60
2019-05-26T17:06:25.483Z,2.10
2019-05-26T17:08:54.224Z,1.90
2019-05-26T17:11:23.759Z,2.07
2019-05-26T17:13:52.362Z,1.83
2019-05-26T17:16:21.011Z,1.80
2019-05-26T17:18:49.573Z,1.83
2019-05-26T17:21:18.118Z,1.40
2019-05-26T17:23:46.571Z,1.70
2019-05-26T17:26:15.407Z,1.30
2019-05-26T17:28:43.949Z,1.50
2019-05-26T17:31:12.537Z,2.40
2019-05-26T17:33:41.151Z,2.03
2019-05-26T17:36:09.709Z,1.60
2019-05-26T17:38:38.170Z,1.60
2019-05-26T17:41:06.735Z,1.60
2019-05-26T17:43:35.269Z,1.50
2019-05-26T17:46:03.835Z,1.47
2019-05-26T17:48:32.423Z,1.70
2019-05-26T17:51:01.068Z,1.80
2019-05-26T17:53:29.627Z,1.70
2019-05-26T17:55:58.161Z,1.70
2019-05-26T17:58:26.648Z,1.80
2019-05-26T18:00:55.115Z,1.90
2019-05-26T18:03:23.683Z,1.77
2019-05-26T18:05:52.219Z,2.00
2019-05-26T18:08:20.795Z,1.60
2019-05-26T18:10:49.344Z,1.53
2019-05-26T18:13:17.910Z,2.10
2019-05-26T18:15:46.451Z,1.77
2019-05-26T18:18:15.450Z,1.80
2019-05-26T18:20:44.063Z,1.50
2019-05-26T18:23:12.777Z,1.83
2019-05-26T18:25:41.406Z,1.93
2019-05-26T18:28:09.980Z,1.70
2019-05-26T18:30:38.573Z,1.60
2019-05-26T18:33:07.071Z,1.80
2019-05-26T18:35:35.635Z,2.00
2019-05-26T18:38:04.333Z,1.87
2019-05-26T18:40:33.009Z,1.90
2019-05-26T18:43:01.553Z,2.40
2019-05-26T18:45:30.078Z,2.20
2019-05-26T18:48:02.818Z,1.93
2019-05-26T18:50:48.161Z,1.90
2019-05-26T18:53:16.654Z,1.60
2019-05-26T18:55:45.189Z,1.93
2019-05-26T18:58:13.685Z,2.00
2019-05-26T19:00:42.358Z,2.20
2019-05-26T19:03:10.913Z,3.90
2019-05-26T19:05:39.439Z,5.80
2019-05-26T19:08:08.011Z,2.90
2019-05-26T19:10:36.546Z,2.40
2019-05-26T19:13:05.214Z,3.20
2019-05-26T19:15:33.847Z,2.50
2019-05-26T19:18:16.747Z,2.43
2019-05-26T19:20:32.662Z,4.30
2019-05-26T19:23:01.198Z,7.07
2019-05-26T19:25:29.848Z,3.53
2019-05-26T19:27:58.378Z,3.90
2019-05-26T19:30:26.954Z,8.33
2019-05-26T19:32:55.487Z,6.57
2019-05-26T19:35:24.045Z,4.87
2019-05-26T19:37:52.514Z,4.00
2019-05-26T19:40:23.469Z,5.07
2019-05-26T19:42:52.076Z,6.30
2019-05-26T19:45:20.705Z,2.90
2019-05-26T19:47:49.308Z,2.87
2019-05-26T19:50:18.049Z,2.50
2019-05-26T19:52:49.799Z,2.43
2019-05-26T19:55:16.865Z,2.00
2019-05-26T19:57:45.405Z,2.13
2019-05-26T20:00:16.438Z,2.10
2019-05-26T20:02:44.974Z,1.90
2019-05-26T20:05:14.229Z,2.20
2019-05-26T20:07:42.696Z,2.40
2019-05-26T20:10:11.796Z,2.17
2019-05-26T20:12:40.330Z,2.53
2019-05-26T20:15:10.445Z,2.00
2019-05-26T20:17:38.992Z,2.43
2019-05-26T20:20:09.901Z,2.10
2019-05-26T20:22:38.510Z,3.30
2019-05-26T20:25:08.786Z,2.80
2019-05-26T20:27:37.399Z,2.37
2019-05-26T20:30:08.685Z,2.20
2019-05-26T20:32:37.294Z,2.50
2019-05-26T20:35:07.494Z,3.90
2019-05-26T20:37:36.159Z,4.80
2019-05-26T20:40:09.751Z,4.93
2019-05-26T20:42:38.336Z,5.23
2019-05-26T20:45:07.934Z,3.00
2019-05-26T20:47:36.470Z,2.17
2019-05-26T20:50:08.309Z,3.80
2019-05-26T20:52:36.992Z,2.97
2019-05-26T20:55:09.496Z,2.87
2019-05-26T20:57:38.122Z,2.13
2019-05-26T21:00:12.645Z,1.63
2019-05-26T21:02:41.780Z,1.80
2019-05-26T21:05:11.462Z,2.30
2019-05-26T21:07:39.962Z,4.10
2019-05-26T21:10:09.061Z,3.30
2019-05-26T21:12:37.648Z,2.50
2019-05-26T21:15:07.417Z,1.60
2019-05-26T21:17:36.066Z,1.70
2019-05-26T21:20:07.934Z,1.93
2019-05-26T21:22:36.499Z,1.63
2019-05-26T21:25:08.177Z,1.77
2019-05-26T21:27:36.749Z,2.10
2019-05-26T21:30:09.526Z,2.03
2019-05-26T21:32:38.509Z,1.80
2019-05-26T21:35:08.015Z,2.70
2019-05-26T21:37:36.600Z,2.23
2019-05-26T21:40:08.645Z,1.70
2019-05-26T21:42:37.137Z,2.10
2019-05-26T21:45:08.461Z,1.57
2019-05-26T21:47:37.029Z,2.00
2019-05-26T21:50:08.271Z,2.17
2019-05-26T21:52:36.996Z,2.27
2019-05-26T21:55:07.346Z,2.17
2019-05-26T21:57:35.994Z,2.40
2019-05-26T22:00:12.019Z,2.43
2019-05-26T22:02:40.573Z,2.00
2019-05-26T22:05:09.682Z,2.20
2019-05-26T22:07:38.327Z,2.10
2019-05-26T22:10:07.632Z,2.03
2019-05-26T22:12:36.284Z,2.30
2019-05-26T22:15:07.845Z,2.27
2019-05-26T22:17:36.348Z,2.20
2019-05-26T22:20:06.330Z,2.33
2019-05-26T22:22:34.950Z,2.40
2019-05-26T22:25:05.153Z,2.30
2019-05-26T22:27:33.701Z,2.50
2019-05-26T22:30:02.474Z,2.67
2019-05-26T22:32:31.027Z,2.67
2019-05-26T22:34:59.586Z,3.40
2019-05-26T22:37:28.124Z,2.90
2019-05-26T22:39:56.686Z,2.60
2019-05-26T22:42:25.221Z,2.37
2019-05-26T22:44:53.705Z,2.80
2019-05-26T22:47:22.185Z,2.53
2019-05-26T22:49:50.753Z,2.30
2019-05-26T22:52:19.288Z,2.43
2019-05-26T22:54:47.870Z,2.20
2019-05-26T22:57:16.410Z,2.20
2019-05-26T22:59:45.166Z,2.50
2019-05-26T23:02:13.795Z,2.10
2019-05-26T23:04:42.361Z,2.20
2019-05-26T23:07:10.924Z,2.30
2019-05-26T23:09:39.487Z,2.00
2019-05-26T23:12:08.111Z,2.30
2019-05-26T23:14:36.708Z,2.60
2019-05-26T23:17:05.373Z,2.27
2019-05-26T23:19:33.964Z,2.00
2019-05-26T23:22:02.562Z,2.27
2019-05-26T23:24:31.159Z,2.23
2019-05-26T23:27:00.136Z,2.00
2019-05-26T23:29:28.637Z,2.10
2019-05-26T23:31:57.150Z,2.27
2019-05-26T23:34:25.690Z,2.20
2019-05-26T23:36:54.347Z,2.50
2019-05-26T23:39:22.883Z,1.90
2019-05-26T23:41:51.441Z,2.40
2019-05-26T23:44:20.347Z,2.40
2019-05-26T23:46:48.929Z,2.63
2019-05-26T23:49:17.406Z,2.47
2019-05-26T23:51:45.938Z,2.43
2019-05-26T23:54:14.466Z,2.33
2019-05-26T23:56:43.028Z,2.23
2019-05-26T23:59:11.576Z,2.23
